sensor_id;sensor_type;location;lat;lon;timestamp;temperature;humidity
18229;DHT22;9239;50.932;3.142;2023-10-19T00:00:15;15.30;99.90
18229;DHT22;9239;50.932;3.142;2023-10-19T00:02:49;15.20;99.90
18229;DHT22;9239;50.932;3.142;2023-10-19T00:05:18;15.20;99.90
18229;DHT22;9239;50.932;3.142;2023-10-19T00:07:45;15.20;99.90
18229;DHT22;9239;50.932;3.142;2023-10-19T00:10:12;15.20;99.90
18229;DHT22;9239;50.932;3.142;2023-10-19T00:12:42;15.20;99.90
18229;DHT22;9239;50.932;3.142;2023-10-19T00:15:10;15.20;99.90
18229;DHT22;9239;50.932;3.142;2023-10-19T00:17:39;15.10;99.90
18229;DHT22;9239;50.932;3.142;2023-10-19T00:20:10;15.10;99.90
18229;DHT22;9239;50.932;3.142;2023-10-19T00:22:52;15.10;99.90
18229;DHT22;9239;50.932;3.142;2023-10-19T00:25:20;15.20;99.90
18229;DHT22;9239;50.932;3.142;2023-10-19T00:27:49;15.10;99.90
18229;DHT22;9239;50.932;3.142;2023-10-19T00:30:16;15.10;99.90
18229;DHT22;9239;50.932;3.142;2023-10-19T00:32:49;15.10;99.90
18229;DHT22;9239;50.932;3.142;2023-10-19T00:35:18;15.10;99.90
18229;DHT22;9239;50.932;3.142;2023-10-19T00:38:01;15.10;99.90
18229;DHT22;9239;50.932;3.142;2023-10-19T00:40:42;15.10;99.90
18229;DHT22;9239;50.932;3.142;2023-10-19T00:43:13;15.20;99.90
18229;DHT22;9239;50.932;3.142;2023-10-19T00:45:43;15.20;99.90
18229;DHT22;9239;50.932;3.142;2023-10-19T00:48:12;15.20;99.90
18229;DHT22;9239;50.932;3.142;2023-10-19T00:50:40;15.20;99.90
18229;DHT22;9239;50.932;3.142;2023-10-19T00:53:08;15.10;99.90
18229;DHT22;9239;50.932;3.142;2023-10-19T00:55:38;15.10;99.90
18229;DHT22;9239;50.932;3.142;2023-10-19T00:58:07;15.20;99.90
18229;DHT22;9239;50.932;3.142;2023-10-19T01:00:39;15.20;99.90
18229;DHT22;9239;50.932;3.142;2023-10-19T01:03:11;15.20;99.90
18229;DHT22;9239;50.932;3.142;2023-10-19T01:05:43;15.20;99.90
18229;DHT22;9239;50.932;3.142;2023-10-19T01:08:15;15.20;99.90
18229;DHT22;9239;50.932;3.142;2023-10-19T01:10:51;15.20;99.90
18229;DHT22;9239;50.932;3.142;2023-10-19T01:13:19;15.30;99.90
18229;DHT22;9239;50.932;3.142;2023-10-19T01:15:53;15.30;99.90
18229;DHT22;9239;50.932;3.142;2023-10-19T01:18:21;15.30;99.90
18229;DHT22;9239;50.932;3.142;2023-10-19T01:20:54;15.30;99.90
18229;DHT22;9239;50.932;3.142;2023-10-19T01:23:23;15.20;99.90
18229;DHT22;9239;50.932;3.142;2023-10-19T01:25:54;15.20;99.90
18229;DHT22;9239;50.932;3.142;2023-10-19T01:28:33;15.10;99.90
18229;DHT22;9239;50.932;3.142;2023-10-19T01:31:10;15.10;99.90
18229;DHT22;9239;50.932;3.142;2023-10-19T01:33:41;15.10;99.90
18229;DHT22;9239;50.932;3.142;2023-10-19T01:36:09;15.20;99.90
18229;DHT22;9239;50.932;3.142;2023-10-19T01:38:52;15.20;99.90
18229;DHT22;9239;50.932;3.142;2023-10-19T01:41:22;15.10;99.90
18229;DHT22;9239;50.932;3.142;2023-10-19T01:43:50;15.10;99.90
18229;DHT22;9239;50.932;3.142;2023-10-19T01:46:20;15.10;99.90
18229;DHT22;9239;50.932;3.142;2023-10-19T01:48:52;15.20;99.90
18229;DHT22;9239;50.932;3.142;2023-10-19T01:51:22;15.10;99.90
18229;DHT22;9239;50.932;3.142;2023-10-19T01:53:49;15.10;99.90
18229;DHT22;9239;50.932;3.142;2023-10-19T01:56:18;15.10;99.90
18229;DHT22;9239;50.932;3.142;2023-10-19T01:58:46;15.00;99.90
18229;DHT22;9239;50.932;3.142;2023-10-19T02:01:14;15.00;99.90
18229;DHT22;9239;50.932;3.142;2023-10-19T02:03:47;15.00;99.90
18229;DHT22;9239;50.932;3.142;2023-10-19T02:06:18;15.00;99.90
18229;DHT22;9239;50.932;3.142;2023-10-19T02:08:50;15.00;99.90
18229;DHT22;9239;50.932;3.142;2023-10-19T02:11:21;15.00;99.90
18229;DHT22;9239;50.932;3.142;2023-10-19T02:13:48;15.00;99.90
18229;DHT22;9239;50.932;3.142;2023-10-19T02:16:16;15.00;99.90
18229;DHT22;9239;50.932;3.142;2023-10-19T02:18:45;15.00;99.90
18229;DHT22;9239;50.932;3.142;2023-10-19T02:21:12;15.00;99.90
18229;DHT22;9239;50.932;3.142;2023-10-19T02:23:39;15.00;99.90
18229;DHT22;9239;50.932;3.142;2023-10-19T02:26:07;15.00;99.90
18229;DHT22;9239;50.932;3.142;2023-10-19T02:28:35;14.90;99.90
18229;DHT22;9239;50.932;3.142;2023-10-19T02:31:04;15.00;99.90
18229;DHT22;9239;50.932;3.142;2023-10-19T02:33:41;15.00;99.90
18229;DHT22;9239;50.932;3.142;2023-10-19T02:36:12;15.00;99.90
18229;DHT22;9239;50.932;3.142;2023-10-19T02:38:42;15.00;99.90
18229;DHT22;9239;50.932;3.142;2023-10-19T02:41:14;14.90;99.90
18229;DHT22;9239;50.932;3.142;2023-10-19T02:43:42;15.00;99.90
18229;DHT22;9239;50.932;3.142;2023-10-19T02:46:13;14.90;99.90
18229;DHT22;9239;50.932;3.142;2023-10-19T02:48:39;14.90;99.90
18229;DHT22;9239;50.932;3.142;2023-10-19T02:51:10;15.00;99.90
18229;DHT22;9239;50.932;3.142;2023-10-19T02:53:37;15.00;99.90
18229;DHT22;9239;50.932;3.142;2023-10-19T02:56:12;15.00;99.90
18229;DHT22;9239;50.932;3.142;2023-10-19T02:58:44;15.00;99.90
18229;DHT22;9239;50.932;3.142;2023-10-19T03:01:15;15.10;99.90
18229;DHT22;9239;50.932;3.142;2023-10-19T03:03:48;15.00;99.90
18229;DHT22;9239;50.932;3.142;2023-10-19T03:06:18;15.10;99.90
18229;DHT22;9239;50.932;3.142;2023-10-19T03:08:46;15.00;99.90
18229;DHT22;9239;50.932;3.142;2023-10-19T03:11:13;15.00;99.90
18229;DHT22;9239;50.932;3.142;2023-10-19T03:13:41;15.00;99.90
18229;DHT22;9239;50.932;3.142;2023-10-19T03:16:09;15.00;99.90
18229;DHT22;9239;50.932;3.142;2023-10-19T03:18:36;15.10;99.90
18229;DHT22;9239;50.932;3.142;2023-10-19T03:21:02;15.10;99.90
18229;DHT22;9239;50.932;3.142;2023-10-19T03:23:29;15.00;99.90
18229;DHT22;9239;50.932;3.142;2023-10-19T03:26:00;15.00;99.90
18229;DHT22;9239;50.932;3.142;2023-10-19T03:28:54;15.10;99.90
18229;DHT22;9239;50.932;3.142;2023-10-19T03:31:22;15.10;99.90
18229;DHT22;9239;50.932;3.142;2023-10-19T03:33:50;15.20;99.90
18229;DHT22;9239;50.932;3.142;2023-10-19T03:36:21;15.20;99.90
18229;DHT22;9239;50.932;3.142;2023-10-19T03:38:48;15.20;99.90
18229;DHT22;9239;50.932;3.142;2023-10-19T03:41:16;15.20;99.90
18229;DHT22;9239;50.932;3.142;2023-10-19T03:43:48;15.10;99.90
18229;DHT22;9239;50.932;3.142;2023-10-19T03:46:19;15.10;99.90
18229;DHT22;9239;50.932;3.142;2023-10-19T03:48:50;15.10;99.90
18229;DHT22;9239;50.932;3.142;2023-10-19T03:51:17;15.10;99.90
18229;DHT22;9239;50.932;3.142;2023-10-19T03:53:44;15.10;99.90
18229;DHT22;9239;50.932;3.142;2023-10-19T03:56:16;15.10;99.90
18229;DHT22;9239;50.932;3.142;2023-10-19T03:58:44;15.10;99.90
18229;DHT22;9239;50.932;3.142;2023-10-19T04:01:15;15.10;99.90
18229;DHT22;9239;50.932;3.142;2023-10-19T04:03:46;15.10;99.90
18229;DHT22;9239;50.932;3.142;2023-10-19T04:06:14;15.10;99.90
18229;DHT22;9239;50.932;3.142;2023-10-19T04:08:41;15.10;99.90
18229;DHT22;9239;50.932;3.142;2023-10-19T04:11:10;15.20;99.90
18229;DHT22;9239;50.932;3.142;2023-10-19T04:13:50;15.10;99.90
18229;DHT22;9239;50.932;3.142;2023-10-19T04:16:19;15.20;99.90
18229;DHT22;9239;50.932;3.142;2023-10-19T04:18:48;15.20;99.90
18229;DHT22;9239;50.932;3.142;2023-10-19T04:21:15;15.20;99.90
18229;DHT22;9239;50.932;3.142;2023-10-19T04:23:43;15.20;99.90
18229;DHT22;9239;50.932;3.142;2023-10-19T04:26:12;15.20;99.90
18229;DHT22;9239;50.932;3.142;2023-10-19T04:28:40;15.20;99.90
18229;DHT22;9239;50.932;3.142;2023-10-19T04:31:16;15.20;99.90
18229;DHT22;9239;50.932;3.142;2023-10-19T04:33:45;15.20;99.90
18229;DHT22;9239;50.932;3.142;2023-10-19T04:36:17;15.20;99.90
18229;DHT22;9239;50.932;3.142;2023-10-19T04:38:47;15.20;99.90
18229;DHT22;9239;50.932;3.142;2023-10-19T04:41:14;15.20;99.90
18229;DHT22;9239;50.932;3.142;2023-10-19T04:43:41;15.20;99.90
18229;DHT22;9239;50.932;3.142;2023-10-19T04:46:15;15.20;99.90
18229;DHT22;9239;50.932;3.142;2023-10-19T04:48:44;15.30;99.90
18229;DHT22;9239;50.932;3.142;2023-10-19T04:51:13;15.30;99.90
18229;DHT22;9239;50.932;3.142;2023-10-19T04:53:41;15.30;99.90
18229;DHT22;9239;50.932;3.142;2023-10-19T04:56:09;15.30;99.90
18229;DHT22;9239;50.932;3.142;2023-10-19T04:58:38;15.30;99.90
18229;DHT22;9239;50.932;3.142;2023-10-19T05:01:05;15.20;99.90
18229;DHT22;9239;50.932;3.142;2023-10-19T05:03:32;15.20;99.90
18229;DHT22;9239;50.932;3.142;2023-10-19T05:06:00;15.20;99.90
18229;DHT22;9239;50.932;3.142;2023-10-19T05:08:27;15.20;99.90
18229;DHT22;9239;50.932;3.142;2023-10-19T05:10:57;15.20;99.90
18229;DHT22;9239;50.932;3.142;2023-10-19T05:13:25;15.30;99.90
18229;DHT22;9239;50.932;3.142;2023-10-19T05:15:53;15.20;99.90
18229;DHT22;9239;50.932;3.142;2023-10-19T05:18:20;15.30;99.90
18229;DHT22;9239;50.932;3.142;2023-10-19T05:20:47;15.30;99.90
18229;DHT22;9239;50.932;3.142;2023-10-19T05:23:15;15.20;99.90
18229;DHT22;9239;50.932;3.142;2023-10-19T05:25:43;15.20;99.90
18229;DHT22;9239;50.932;3.142;2023-10-19T05:28:11;15.20;99.90
18229;DHT22;9239;50.932;3.142;2023-10-19T05:30:38;15.20;99.90
18229;DHT22;9239;50.932;3.142;2023-10-19T05:33:05;15.10;99.90
18229;DHT22;9239;50.932;3.142;2023-10-19T05:35:32;15.10;99.90
18229;DHT22;9239;50.932;3.142;2023-10-19T05:38:06;15.10;99.90
18229;DHT22;9239;50.932;3.142;2023-10-19T05:40:33;15.00;99.90
18229;DHT22;9239;50.932;3.142;2023-10-19T05:43:02;14.90;99.90
18229;DHT22;9239;50.932;3.142;2023-10-19T05:45:30;14.90;99.90
18229;DHT22;9239;50.932;3.142;2023-10-19T05:47:58;15.00;99.90
18229;DHT22;9239;50.932;3.142;2023-10-19T05:50:25;15.00;99.90
18229;DHT22;9239;50.932;3.142;2023-10-19T05:52:54;15.00;99.90
18229;DHT22;9239;50.932;3.142;2023-10-19T05:55:21;14.90;99.90
18229;DHT22;9239;50.932;3.142;2023-10-19T05:57:48;14.90;99.90
18229;DHT22;9239;50.932;3.142;2023-10-19T06:00:15;14.90;99.90
18229;DHT22;9239;50.932;3.142;2023-10-19T06:02:46;14.80;99.90
18229;DHT22;9239;50.932;3.142;2023-10-19T06:05:15;14.80;99.90
18229;DHT22;9239;50.932;3.142;2023-10-19T06:07:42;14.80;99.90
18229;DHT22;9239;50.932;3.142;2023-10-19T06:10:11;14.90;99.90
18229;DHT22;9239;50.932;3.142;2023-10-19T06:12:41;14.90;99.90
18229;DHT22;9239;50.932;3.142;2023-10-19T06:15:09;14.80;99.90
18229;DHT22;9239;50.932;3.142;2023-10-19T06:17:38;14.80;99.90
18229;DHT22;9239;50.932;3.142;2023-10-19T06:20:09;14.80;99.90
18229;DHT22;9239;50.932;3.142;2023-10-19T06:22:46;14.90;99.90
18229;DHT22;9239;50.932;3.142;2023-10-19T06:25:16;14.90;99.90
18229;DHT22;9239;50.932;3.142;2023-10-19T06:27:45;14.90;99.90
18229;DHT22;9239;50.932;3.142;2023-10-19T06:30:13;14.90;99.90
18229;DHT22;9239;50.932;3.142;2023-10-19T06:32:45;14.90;99.90
18229;DHT22;9239;50.932;3.142;2023-10-19T06:35:14;14.90;99.90
18229;DHT22;9239;50.932;3.142;2023-10-19T06:37:41;14.90;99.90
18229;DHT22;9239;50.932;3.142;2023-10-19T06:40:10;14.90;99.90
18229;DHT22;9239;50.932;3.142;2023-10-19T06:42:38;14.90;99.90
18229;DHT22;9239;50.932;3.142;2023-10-19T06:45:06;14.90;99.90
18229;DHT22;9239;50.932;3.142;2023-10-19T06:47:35;14.90;99.90
18229;DHT22;9239;50.932;3.142;2023-10-19T06:50:05;14.90;99.90
18229;DHT22;9239;50.932;3.142;2023-10-19T06:52:35;14.80;99.90
18229;DHT22;9239;50.932;3.142;2023-10-19T06:55:03;14.90;99.90
18229;DHT22;9239;50.932;3.142;2023-10-19T06:57:30;14.90;99.90
18229;DHT22;9239;50.932;3.142;2023-10-19T06:59:58;14.90;99.90
18229;DHT22;9239;50.932;3.142;2023-10-19T07:02:33;14.90;99.90
18229;DHT22;9239;50.932;3.142;2023-10-19T07:05:00;14.90;99.90
18229;DHT22;9239;50.932;3.142;2023-10-19T07:07:28;15.00;99.90
18229;DHT22;9239;50.932;3.142;2023-10-19T07:09:57;15.00;99.90
18229;DHT22;9239;50.932;3.142;2023-10-19T07:12:24;15.10;99.90
18229;DHT22;9239;50.932;3.142;2023-10-19T07:14:51;15.10;99.90
18229;DHT22;9239;50.932;3.142;2023-10-19T07:17:18;15.10;99.90
18229;DHT22;9239;50.932;3.142;2023-10-19T07:19:45;15.10;99.90
18229;DHT22;9239;50.932;3.142;2023-10-19T07:22:14;15.10;99.90
18229;DHT22;9239;50.932;3.142;2023-10-19T07:24:42;15.10;99.90
18229;DHT22;9239;50.932;3.142;2023-10-19T07:27:11;15.10;99.90
18229;DHT22;9239;50.932;3.142;2023-10-19T07:29:44;15.10;99.90
18229;DHT22;9239;50.932;3.142;2023-10-19T07:32:11;15.10;99.90
18229;DHT22;9239;50.932;3.142;2023-10-19T07:34:39;15.10;99.90
18229;DHT22;9239;50.932;3.142;2023-10-19T07:37:06;15.10;99.90
18229;DHT22;9239;50.932;3.142;2023-10-19T07:39:34;15.10;99.90
18229;DHT22;9239;50.932;3.142;2023-10-19T07:42:05;15.10;99.90
18229;DHT22;9239;50.932;3.142;2023-10-19T07:44:35;15.20;99.90
18229;DHT22;9239;50.932;3.142;2023-10-19T07:47:02;15.20;99.90
18229;DHT22;9239;50.932;3.142;2023-10-19T07:49:29;15.30;99.90
18229;DHT22;9239;50.932;3.142;2023-10-19T07:51:56;15.30;99.90
18229;DHT22;9239;50.932;3.142;2023-10-19T07:54:24;15.30;99.90
18229;DHT22;9239;50.932;3.142;2023-10-19T07:56:54;15.30;99.90
18229;DHT22;9239;50.932;3.142;2023-10-19T07:59:21;15.30;99.90
18229;DHT22;9239;50.932;3.142;2023-10-19T08:01:49;15.40;99.90
18229;DHT22;9239;50.932;3.142;2023-10-19T08:04:16;15.40;99.90
18229;DHT22;9239;50.932;3.142;2023-10-19T08:06:43;15.50;99.90
18229;DHT22;9239;50.932;3.142;2023-10-19T08:09:10;15.50;99.90
18229;DHT22;9239;50.932;3.142;2023-10-19T08:11:37;15.60;99.90
18229;DHT22;9239;50.932;3.142;2023-10-19T08:14:04;15.70;99.90
18229;DHT22;9239;50.932;3.142;2023-10-19T08:16:31;15.80;99.90
18229;DHT22;9239;50.932;3.142;2023-10-19T08:19:00;15.90;99.90
18229;DHT22;9239;50.932;3.142;2023-10-19T08:21:27;15.90;99.90
18229;DHT22;9239;50.932;3.142;2023-10-19T08:23:54;16.00;99.90
18229;DHT22;9239;50.932;3.142;2023-10-19T08:26:21;16.00;99.90
18229;DHT22;9239;50.932;3.142;2023-10-19T08:28:48;16.00;99.90
18229;DHT22;9239;50.932;3.142;2023-10-19T08:31:15;16.00;99.90
18229;DHT22;9239;50.932;3.142;2023-10-19T08:33:42;16.00;99.90
18229;DHT22;9239;50.932;3.142;2023-10-19T08:36:17;15.90;99.90
18229;DHT22;9239;50.932;3.142;2023-10-19T08:38:45;15.90;99.90
18229;DHT22;9239;50.932;3.142;2023-10-19T08:41:13;15.90;99.90
18229;DHT22;9239;50.932;3.142;2023-10-19T08:43:41;15.90;99.90
18229;DHT22;9239;50.932;3.142;2023-10-19T08:46:08;15.90;99.90
18229;DHT22;9239;50.932;3.142;2023-10-19T08:48:35;16.00;99.90
18229;DHT22;9239;50.932;3.142;2023-10-19T08:51:08;16.10;99.90
18229;DHT22;9239;50.932;3.142;2023-10-19T08:53:38;16.30;99.90
18229;DHT22;9239;50.932;3.142;2023-10-19T08:56:10;16.30;99.90
18229;DHT22;9239;50.932;3.142;2023-10-19T08:58:37;16.30;99.90
18229;DHT22;9239;50.932;3.142;2023-10-19T09:01:04;16.30;99.90
18229;DHT22;9239;50.932;3.142;2023-10-19T09:03:35;16.30;99.90
18229;DHT22;9239;50.932;3.142;2023-10-19T09:06:04;16.20;99.90
18229;DHT22;9239;50.932;3.142;2023-10-19T09:08:32;16.30;99.90
18229;DHT22;9239;50.932;3.142;2023-10-19T09:11:10;16.40;99.90
18229;DHT22;9239;50.932;3.142;2023-10-19T09:13:48;16.40;99.90
18229;DHT22;9239;50.932;3.142;2023-10-19T09:16:17;16.40;99.90
18229;DHT22;9239;50.932;3.142;2023-10-19T09:18:44;16.50;99.90
18229;DHT22;9239;50.932;3.142;2023-10-19T09:21:14;16.50;99.90
18229;DHT22;9239;50.932;3.142;2023-10-19T09:23:50;16.60;99.90
18229;DHT22;9239;50.932;3.142;2023-10-19T09:26:18;16.70;99.90
18229;DHT22;9239;50.932;3.142;2023-10-19T09:28:47;16.70;99.90
18229;DHT22;9239;50.932;3.142;2023-10-19T09:31:15;16.80;99.90
18229;DHT22;9239;50.932;3.142;2023-10-19T09:33:43;16.80;99.90
18229;DHT22;9239;50.932;3.142;2023-10-19T09:36:12;16.80;99.90
18229;DHT22;9239;50.932;3.142;2023-10-19T09:38:43;16.80;99.90
18229;DHT22;9239;50.932;3.142;2023-10-19T09:41:12;16.80;99.90
18229;DHT22;9239;50.932;3.142;2023-10-19T09:43:44;16.80;99.90
18229;DHT22;9239;50.932;3.142;2023-10-19T09:46:12;16.70;99.90
18229;DHT22;9239;50.932;3.142;2023-10-19T09:48:45;16.70;99.90
18229;DHT22;9239;50.932;3.142;2023-10-19T09:51:14;16.60;99.90
18229;DHT22;9239;50.932;3.142;2023-10-19T09:53:43;16.60;99.90
18229;DHT22;9239;50.932;3.142;2023-10-19T09:56:15;16.50;99.90
18229;DHT22;9239;50.932;3.142;2023-10-19T09:58:49;16.50;99.90
18229;DHT22;9239;50.932;3.142;2023-10-19T10:01:17;16.50;99.90
18229;DHT22;9239;50.932;3.142;2023-10-19T10:03:49;16.40;99.90
18229;DHT22;9239;50.932;3.142;2023-10-19T10:06:17;16.40;99.90
18229;DHT22;9239;50.932;3.142;2023-10-19T10:08:53;16.40;99.90
18229;DHT22;9239;50.932;3.142;2023-10-19T10:11:22;16.40;99.90
18229;DHT22;9239;50.932;3.142;2023-10-19T10:13:54;16.40;99.90
18229;DHT22;9239;50.932;3.142;2023-10-19T10:16:23;16.50;99.90
18229;DHT22;9239;50.932;3.142;2023-10-19T10:18:54;16.50;99.90
18229;DHT22;9239;50.932;3.142;2023-10-19T10:21:23;16.60;99.90
18229;DHT22;9239;50.932;3.142;2023-10-19T10:23:53;16.70;99.90
18229;DHT22;9239;50.932;3.142;2023-10-19T10:26:21;16.70;99.90
18229;DHT22;9239;50.932;3.142;2023-10-19T10:29:12;16.80;99.90
18229;DHT22;9239;50.932;3.142;2023-10-19T10:31:44;16.80;99.90
18229;DHT22;9239;50.932;3.142;2023-10-19T10:34:12;16.90;99.90
18229;DHT22;9239;50.932;3.142;2023-10-19T10:37:00;17.00;99.90
18229;DHT22;9239;50.932;3.142;2023-10-19T10:39:28;17.10;99.90
18229;DHT22;9239;50.932;3.142;2023-10-19T10:41:57;17.20;99.90
18229;DHT22;9239;50.932;3.142;2023-10-19T10:44:44;17.30;99.90
18229;DHT22;9239;50.932;3.142;2023-10-19T10:47:15;17.50;99.90
18229;DHT22;9239;50.932;3.142;2023-10-19T10:49:50;17.70;99.90
18229;DHT22;9239;50.932;3.142;2023-10-19T10:52:28;17.90;99.90
18229;DHT22;9239;50.932;3.142;2023-10-19T10:54:55;17.90;99.90
18229;DHT22;9239;50.932;3.142;2023-10-19T10:57:23;18.00;99.90
18229;DHT22;9239;50.932;3.142;2023-10-19T11:00:04;18.10;99.90
18229;DHT22;9239;50.932;3.142;2023-10-19T11:02:33;18.10;99.90
18229;DHT22;9239;50.932;3.142;2023-10-19T11:05:01;18.10;99.90
18229;DHT22;9239;50.932;3.142;2023-10-19T11:07:28;18.10;99.90
18229;DHT22;9239;50.932;3.142;2023-10-19T11:09:56;18.00;99.90
18229;DHT22;9239;50.932;3.142;2023-10-19T11:12:23;18.00;99.90
18229;DHT22;9239;50.932;3.142;2023-10-19T11:14:53;17.90;99.90
18229;DHT22;9239;50.932;3.142;2023-10-19T11:17:22;18.00;99.90
18229;DHT22;9239;50.932;3.142;2023-10-19T11:19:54;18.00;99.90
18229;DHT22;9239;50.932;3.142;2023-10-19T11:22:23;18.10;99.90
18229;DHT22;9239;50.932;3.142;2023-10-19T11:24:52;18.10;99.90
18229;DHT22;9239;50.932;3.142;2023-10-19T11:27:24;18.10;99.90
18229;DHT22;9239;50.932;3.142;2023-10-19T11:29:55;18.10;99.90
18229;DHT22;9239;50.932;3.142;2023-10-19T11:32:24;18.10;99.90
18229;DHT22;9239;50.932;3.142;2023-10-19T11:34:52;18.20;99.90
18229;DHT22;9239;50.932;3.142;2023-10-19T11:37:19;18.20;99.90
18229;DHT22;9239;50.932;3.142;2023-10-19T11:39:46;18.20;99.90
18229;DHT22;9239;50.932;3.142;2023-10-19T11:42:16;18.10;99.90
18229;DHT22;9239;50.932;3.142;2023-10-19T11:44:44;18.20;99.90
18229;DHT22;9239;50.932;3.142;2023-10-19T11:47:11;18.20;99.90
18229;DHT22;9239;50.932;3.142;2023-10-19T11:49:40;18.10;99.90
18229;DHT22;9239;50.932;3.142;2023-10-19T11:52:07;18.10;99.90
18229;DHT22;9239;50.932;3.142;2023-10-19T11:54:34;18.10;99.90
18229;DHT22;9239;50.932;3.142;2023-10-19T11:57:01;18.00;99.90
18229;DHT22;9239;50.932;3.142;2023-10-19T11:59:28;18.10;99.90
18229;DHT22;9239;50.932;3.142;2023-10-19T12:01:55;18.10;99.90
18229;DHT22;9239;50.932;3.142;2023-10-19T12:04:24;18.10;99.90
18229;DHT22;9239;50.932;3.142;2023-10-19T12:06:53;18.10;99.90
18229;DHT22;9239;50.932;3.142;2023-10-19T12:09:21;18.00;99.90
18229;DHT22;9239;50.932;3.142;2023-10-19T12:11:50;18.00;99.90
18229;DHT22;9239;50.932;3.142;2023-10-19T12:14:19;18.00;99.90
18229;DHT22;9239;50.932;3.142;2023-10-19T12:16:47;17.90;99.90
18229;DHT22;9239;50.932;3.142;2023-10-19T12:19:14;17.90;99.90
18229;DHT22;9239;50.932;3.142;2023-10-19T12:21:43;18.00;99.90
18229;DHT22;9239;50.932;3.142;2023-10-19T12:24:11;18.00;99.90
18229;DHT22;9239;50.932;3.142;2023-10-19T12:26:38;18.00;99.90
18229;DHT22;9239;50.932;3.142;2023-10-19T12:29:05;18.00;99.90
18229;DHT22;9239;50.932;3.142;2023-10-19T12:31:36;18.00;99.90
18229;DHT22;9239;50.932;3.142;2023-10-19T12:34:05;18.10;99.90
18229;DHT22;9239;50.932;3.142;2023-10-19T12:36:34;18.10;99.90
18229;DHT22;9239;50.932;3.142;2023-10-19T12:39:01;18.10;99.90
18229;DHT22;9239;50.932;3.142;2023-10-19T12:41:32;18.30;99.90
18229;DHT22;9239;50.932;3.142;2023-10-19T12:43:59;18.40;99.90
18229;DHT22;9239;50.932;3.142;2023-10-19T12:46:28;18.60;99.90
18229;DHT22;9239;50.932;3.142;2023-10-19T12:48:55;18.60;99.90
18229;DHT22;9239;50.932;3.142;2023-10-19T12:51:24;18.70;99.90
18229;DHT22;9239;50.932;3.142;2023-10-19T12:53:52;18.70;99.90
18229;DHT22;9239;50.932;3.142;2023-10-19T12:56:19;18.70;99.90
18229;DHT22;9239;50.932;3.142;2023-10-19T12:58:47;18.60;99.90
18229;DHT22;9239;50.932;3.142;2023-10-19T13:01:15;18.60;99.90
18229;DHT22;9239;50.932;3.142;2023-10-19T13:03:44;18.60;99.90
18229;DHT22;9239;50.932;3.142;2023-10-19T13:06:12;18.60;99.90
18229;DHT22;9239;50.932;3.142;2023-10-19T13:08:39;18.50;99.90
18229;DHT22;9239;50.932;3.142;2023-10-19T13:11:08;18.50;99.90
18229;DHT22;9239;50.932;3.142;2023-10-19T13:13:35;18.50;99.90
18229;DHT22;9239;50.932;3.142;2023-10-19T13:16:04;18.50;99.90
18229;DHT22;9239;50.932;3.142;2023-10-19T13:18:32;18.50;99.90
18229;DHT22;9239;50.932;3.142;2023-10-19T13:21:00;18.40;99.90
18229;DHT22;9239;50.932;3.142;2023-10-19T13:23:30;18.40;99.90
18229;DHT22;9239;50.932;3.142;2023-10-19T13:25:59;18.40;99.90
18229;DHT22;9239;50.932;3.142;2023-10-19T13:28:34;18.40;99.90
18229;DHT22;9239;50.932;3.142;2023-10-19T13:31:04;18.40;99.90
18229;DHT22;9239;50.932;3.142;2023-10-19T13:33:35;18.40;99.90
18229;DHT22;9239;50.932;3.142;2023-10-19T13:36:02;18.50;99.90
18229;DHT22;9239;50.932;3.142;2023-10-19T13:38:31;18.60;99.90
18229;DHT22;9239;50.932;3.142;2023-10-19T13:40:58;18.70;99.90
18229;DHT22;9239;50.932;3.142;2023-10-19T13:43:25;18.80;99.90
18229;DHT22;9239;50.932;3.142;2023-10-19T13:45:52;18.90;99.90
18229;DHT22;9239;50.932;3.142;2023-10-19T13:48:21;18.90;99.90
18229;DHT22;9239;50.932;3.142;2023-10-19T13:50:48;19.00;99.90
18229;DHT22;9239;50.932;3.142;2023-10-19T13:53:16;19.10;99.90
18229;DHT22;9239;50.932;3.142;2023-10-19T13:55:43;19.10;99.90
18229;DHT22;9239;50.932;3.142;2023-10-19T13:58:11;19.10;99.90
18229;DHT22;9239;50.932;3.142;2023-10-19T14:00:41;19.10;99.90
18229;DHT22;9239;50.932;3.142;2023-10-19T14:03:09;19.10;99.90
18229;DHT22;9239;50.932;3.142;2023-10-19T14:05:40;19.10;99.90
18229;DHT22;9239;50.932;3.142;2023-10-19T14:08:09;19.00;99.90
18229;DHT22;9239;50.932;3.142;2023-10-19T14:10:36;19.10;99.90
18229;DHT22;9239;50.932;3.142;2023-10-19T14:13:07;19.10;99.90
18229;DHT22;9239;50.932;3.142;2023-10-19T14:15:36;19.10;99.90
18229;DHT22;9239;50.932;3.142;2023-10-19T14:18:03;19.20;99.90
18229;DHT22;9239;50.932;3.142;2023-10-19T14:20:31;19.30;99.90
18229;DHT22;9239;50.932;3.142;2023-10-19T14:23:01;19.30;99.90
18229;DHT22;9239;50.932;3.142;2023-10-19T14:25:30;19.40;99.90
18229;DHT22;9239;50.932;3.142;2023-10-19T14:27:57;19.50;99.90
18229;DHT22;9239;50.932;3.142;2023-10-19T14:30:26;19.60;99.90
18229;DHT22;9239;50.932;3.142;2023-10-19T14:32:54;19.60;99.90
18229;DHT22;9239;50.932;3.142;2023-10-19T14:35:23;19.40;99.90
18229;DHT22;9239;50.932;3.142;2023-10-19T14:37:52;19.40;99.90
18229;DHT22;9239;50.932;3.142;2023-10-19T14:40:24;19.30;99.90
18229;DHT22;9239;50.932;3.142;2023-10-19T14:42:52;19.30;99.90
18229;DHT22;9239;50.932;3.142;2023-10-19T14:45:21;19.40;99.90
18229;DHT22;9239;50.932;3.142;2023-10-19T14:47:52;19.30;99.90
18229;DHT22;9239;50.932;3.142;2023-10-19T14:50:21;19.30;99.90
18229;DHT22;9239;50.932;3.142;2023-10-19T14:52:49;19.40;99.90
18229;DHT22;9239;50.932;3.142;2023-10-19T14:55:17;19.40;99.90
18229;DHT22;9239;50.932;3.142;2023-10-19T14:57:46;19.40;99.90
18229;DHT22;9239;50.932;3.142;2023-10-19T15:00:15;19.40;99.90
18229;DHT22;9239;50.932;3.142;2023-10-19T15:02:48;19.40;99.90
18229;DHT22;9239;50.932;3.142;2023-10-19T15:05:16;19.40;99.90
18229;DHT22;9239;50.932;3.142;2023-10-19T15:07:44;19.40;99.90
18229;DHT22;9239;50.932;3.142;2023-10-19T15:10:12;19.40;99.90
18229;DHT22;9239;50.932;3.142;2023-10-19T15:12:40;19.30;99.90
18229;DHT22;9239;50.932;3.142;2023-10-19T15:15:09;19.30;99.90
18229;DHT22;9239;50.932;3.142;2023-10-19T15:17:37;19.30;99.90
18229;DHT22;9239;50.932;3.142;2023-10-19T15:20:06;19.30;99.90
18229;DHT22;9239;50.932;3.142;2023-10-19T15:22:33;19.30;99.90
18229;DHT22;9239;50.932;3.142;2023-10-19T15:25:00;19.20;99.90
18229;DHT22;9239;50.932;3.142;2023-10-19T15:27:27;19.20;99.90
18229;DHT22;9239;50.932;3.142;2023-10-19T15:29:55;19.30;99.90
18229;DHT22;9239;50.932;3.142;2023-10-19T15:32:24;19.30;99.90
18229;DHT22;9239;50.932;3.142;2023-10-19T15:34:51;19.30;99.90
18229;DHT22;9239;50.932;3.142;2023-10-19T15:37:18;19.40;99.90
18229;DHT22;9239;50.932;3.142;2023-10-19T15:39:45;19.50;99.90
18229;DHT22;9239;50.932;3.142;2023-10-19T15:42:13;19.50;99.90
18229;DHT22;9239;50.932;3.142;2023-10-19T15:44:40;19.50;99.90
18229;DHT22;9239;50.932;3.142;2023-10-19T15:47:07;19.50;99.90
18229;DHT22;9239;50.932;3.142;2023-10-19T15:49:46;19.40;99.90
18229;DHT22;9239;50.932;3.142;2023-10-19T15:52:13;19.20;99.90
18229;DHT22;9239;50.932;3.142;2023-10-19T15:54:40;19.20;99.90
18229;DHT22;9239;50.932;3.142;2023-10-19T15:57:07;19.10;99.90